sensor_id;sensor_type;location;lat;lon;timestamp;temperature;humidity
45383;DHT22;42455;51.660;5.824;2022-08-01T00:02:29;21.9;98.0
45383;DHT22;42455;51.660;5.824;2022-08-01T00:07:35;21.9;98.0
45383;DHT22;42455;51.660;5.824;2022-08-01T00:12:42;21.9;98.0
45383;DHT22;42455;51.660;5.824;2022-08-01T00:17:47;21.9;98.0
45383;DHT22;42455;51.660;5.824;2022-08-01T00:22:54;21.9;98.0
45383;DHT22;42455;51.660;5.824;2022-08-01T00:28:00;21.9;98.0
45383;DHT22;42455;51.660;5.824;2022-08-01T00:33:06;21.8;98.0
45383;DHT22;42455;51.660;5.824;2022-08-01T00:43:18;21.8;98.0
45383;DHT22;42455;51.660;5.824;2022-08-01T00:48:25;21.8;98.0
45383;DHT22;42455;51.660;5.824;2022-08-01T00:53:30;21.8;98.0
45383;DHT22;42455;51.660;5.824;2022-08-01T00:58:36;21.8;98.0
45383;DHT22;42455;51.660;5.824;2022-08-01T01:03:42;21.8;98.5
45383;DHT22;42455;51.660;5.824;2022-08-01T01:08:53;21.7;98.0
45383;DHT22;42455;51.660;5.824;2022-08-01T01:14:00;21.7;98.0
45383;DHT22;42455;51.660;5.824;2022-08-01T01:19:01;21.6;98.0
45383;DHT22;42455;51.660;5.824;2022-08-01T01:24:56;21.6;98.0
45383;DHT22;42455;51.660;5.824;2022-08-01T01:29:35;21.5;98.0
45383;DHT22;42455;51.660;5.824;2022-08-01T01:34:21;21.5;98.0
45383;DHT22;42455;51.660;5.824;2022-08-01T01:39:26;21.4;98.0
45383;DHT22;42455;51.660;5.824;2022-08-01T01:44:32;21.4;98.0
45383;DHT22;42455;51.660;5.824;2022-08-01T01:49:39;21.4;98.0
45383;DHT22;42455;51.660;5.824;2022-08-01T01:54:52;21.3;98.0
45383;DHT22;42455;51.660;5.824;2022-08-01T01:59:50;21.3;98.0
45383;DHT22;42455;51.660;5.824;2022-08-01T02:04:56;21.3;98.0
45383;DHT22;42455;51.660;5.824;2022-08-01T02:10:03;21.3;98.0
45383;DHT22;42455;51.660;5.824;2022-08-01T02:15:09;21.3;98.0
45383;DHT22;42455;51.660;5.824;2022-08-01T02:20:15;21.3;98.0
45383;DHT22;42455;51.660;5.824;2022-08-01T02:25:27;21.2;98.0
45383;DHT22;42455;51.660;5.824;2022-08-01T02:30:32;21.2;98.0
45383;DHT22;42455;51.660;5.824;2022-08-01T02:35:38;21.2;98.0
45383;DHT22;42455;51.660;5.824;2022-08-01T02:40:42;21.1;98.0
45383;DHT22;42455;51.660;5.824;2022-08-01T02:45:53;21.1;98.0
45383;DHT22;42455;51.660;5.824;2022-08-01T02:50:54;21.0;98.0
45383;DHT22;42455;51.660;5.824;2022-08-01T02:55:58;21.0;98.0
45383;DHT22;42455;51.660;5.824;2022-08-01T03:01:04;21.0;98.0
45383;DHT22;42455;51.660;5.824;2022-08-01T03:06:09;20.9;98.0
45383;DHT22;42455;51.660;5.824;2022-08-01T03:11:15;20.9;98.0
45383;DHT22;42455;51.660;5.824;2022-08-01T03:16:23;20.9;98.0
45383;DHT22;42455;51.660;5.824;2022-08-01T03:21:30;20.9;98.0
45383;DHT22;42455;51.660;5.824;2022-08-01T03:26:34;20.8;98.0
45383;DHT22;42455;51.660;5.824;2022-08-01T03:31:40;20.8;98.0
45383;DHT22;42455;51.660;5.824;2022-08-01T03:36:59;20.7;98.0
45383;DHT22;42455;51.660;5.824;2022-08-01T03:41:54;20.6;98.0
45383;DHT22;42455;51.660;5.824;2022-08-01T03:46:59;20.6;98.0
45383;DHT22;42455;51.660;5.824;2022-08-01T03:52:06;20.5;98.0
45383;DHT22;42455;51.660;5.824;2022-08-01T03:57:10;20.5;98.5
45383;DHT22;42455;51.660;5.824;2022-08-01T04:02:16;20.5;98.5
45383;DHT22;42455;51.660;5.824;2022-08-01T04:07:28;20.5;98.5
45383;DHT22;42455;51.660;5.824;2022-08-01T04:12:28;20.5;98.5
45383;DHT22;42455;51.660;5.824;2022-08-01T04:17:34;20.5;98.5
45383;DHT22;42455;51.660;5.824;2022-08-01T04:22:41;20.5;98.5
45383;DHT22;42455;51.660;5.824;2022-08-01T04:27:50;20.5;98.5
45383;DHT22;42455;51.660;5.824;2022-08-01T04:32:55;20.5;98.5
45383;DHT22;42455;51.660;5.824;2022-08-01T04:38:00;20.5;98.5
45383;DHT22;42455;51.660;5.824;2022-08-01T04:43:06;20.5;98.5
45383;DHT22;42455;51.660;5.824;2022-08-01T04:48:15;20.5;98.5
45383;DHT22;42455;51.660;5.824;2022-08-01T04:53:19;20.6;98.5
45383;DHT22;42455;51.660;5.824;2022-08-01T04:58:23;20.6;98.5
45383;DHT22;42455;51.660;5.824;2022-08-01T05:03:28;20.6;98.5
45383;DHT22;42455;51.660;5.824;2022-08-01T05:08:34;20.6;98.5
45383;DHT22;42455;51.660;5.824;2022-08-01T05:13:41;20.6;98.5
45383;DHT22;42455;51.660;5.824;2022-08-01T05:18:47;20.7;98.5
45383;DHT22;42455;51.660;5.824;2022-08-01T05:23:53;20.7;98.5
45383;DHT22;42455;51.660;5.824;2022-08-01T05:28:59;20.8;98.5
45383;DHT22;42455;51.660;5.824;2022-08-01T05:34:06;20.8;98.5
45383;DHT22;42455;51.660;5.824;2022-08-01T05:39:12;20.8;98.5
45383;DHT22;42455;51.660;5.824;2022-08-01T05:44:18;20.9;98.5
45383;DHT22;42455;51.660;5.824;2022-08-01T05:49:24;20.9;98.5
45383;DHT22;42455;51.660;5.824;2022-08-01T05:54:30;21.0;98.5
45383;DHT22;42455;51.660;5.824;2022-08-01T05:59:37;21.1;98.5
45383;DHT22;42455;51.660;5.824;2022-08-01T06:04:43;21.2;98.5
45383;DHT22;42455;51.660;5.824;2022-08-01T06:09:49;21.3;98.5
45383;DHT22;42455;51.660;5.824;2022-08-01T06:14:55;21.5;98.5
45383;DHT22;42455;51.660;5.824;2022-08-01T06:20:01;21.5;98.5
45383;DHT22;42455;51.660;5.824;2022-08-01T06:25:08;21.6;98.5
45383;DHT22;42455;51.660;5.824;2022-08-01T06:30:14;21.6;98.5
45383;DHT22;42455;51.660;5.824;2022-08-01T06:35:20;21.7;98.0
45383;DHT22;42455;51.660;5.824;2022-08-01T06:40:26;21.8;98.0
45383;DHT22;42455;51.660;5.824;2022-08-01T06:45:33;21.9;98.0
45383;DHT22;42455;51.660;5.824;2022-08-01T06:50:38;22.0;97.5
45383;DHT22;42455;51.660;5.824;2022-08-01T06:55:44;22.0;97.5
45383;DHT22;42455;51.660;5.824;2022-08-01T07:00:49;22.0;97.0
45383;DHT22;42455;51.660;5.824;2022-08-01T07:05:55;22.0;97.0
45383;DHT22;42455;51.660;5.824;2022-08-01T07:11:01;22.0;97.0
45383;DHT22;42455;51.660;5.824;2022-08-01T07:16:08;22.1;96.5
45383;DHT22;42455;51.660;5.824;2022-08-01T07:21:14;22.1;96.5
45383;DHT22;42455;51.660;5.824;2022-08-01T07:26:20;22.2;96.5
45383;DHT22;42455;51.660;5.824;2022-08-01T07:31:26;22.2;96.5
45383;DHT22;42455;51.660;5.824;2022-08-01T07:36:33;22.3;96.0
45383;DHT22;42455;51.660;5.824;2022-08-01T07:41:39;22.3;96.0
45383;DHT22;42455;51.660;5.824;2022-08-01T07:46:45;22.3;95.5
45383;DHT22;42455;51.660;5.824;2022-08-01T07:51:51;22.4;95.5
45383;DHT22;42455;51.660;5.824;2022-08-01T07:56:57;22.4;95.0
45383;DHT22;42455;51.660;5.824;2022-08-01T08:02:04;22.5;95.0
45383;DHT22;42455;51.660;5.824;2022-08-01T08:07:10;22.7;95.0
45383;DHT22;42455;51.660;5.824;2022-08-01T08:12:16;22.8;94.5
45383;DHT22;42455;51.660;5.824;2022-08-01T08:17:22;22.9;94.0
45383;DHT22;42455;51.660;5.824;2022-08-01T08:22:28;23.0;94.0
45383;DHT22;42455;51.660;5.824;2022-08-01T08:27:35;23.2;93.5
45383;DHT22;42455;51.660;5.824;2022-08-01T08:32:41;23.4;93.5
45383;DHT22;42455;51.660;5.824;2022-08-01T08:37:47;23.6;93.0
45383;DHT22;42455;51.660;5.824;2022-08-01T08:42:53;23.7;93.0
45383;DHT22;42455;51.660;5.824;2022-08-01T08:47:59;23.9;93.0
45383;DHT22;42455;51.660;5.824;2022-08-01T08:53:05;24.1;92.5
45383;DHT22;42455;51.660;5.824;2022-08-01T08:58:12;24.3;92.0
45383;DHT22;42455;51.660;5.824;2022-08-01T09:03:17;24.4;91.0
45383;DHT22;42455;51.660;5.824;2022-08-01T09:08:23;24.5;90.5
45383;DHT22;42455;51.660;5.824;2022-08-01T09:13:30;24.6;90.0
45383;DHT22;42455;51.660;5.824;2022-08-01T09:18:37;24.8;90.0
45383;DHT22;42455;51.660;5.824;2022-08-01T09:23:44;24.9;89.0
45383;DHT22;42455;51.660;5.824;2022-08-01T09:28:48;24.9;88.5
45383;DHT22;42455;51.660;5.824;2022-08-01T09:33:57;24.8;88.0
45383;DHT22;42455;51.660;5.824;2022-08-01T09:39:14;24.9;87.5
45383;DHT22;42455;51.660;5.824;2022-08-01T09:44:07;25.1;88.0
45383;DHT22;42455;51.660;5.824;2022-08-01T09:49:13;25.3;87.5
45383;DHT22;42455;51.660;5.824;2022-08-01T09:54:31;25.5;86.5
45383;DHT22;42455;51.660;5.824;2022-08-01T09:59:34;25.6;85.5
45383;DHT22;42455;51.660;5.824;2022-08-01T10:04:33;25.8;85.0
45383;DHT22;42455;51.660;5.824;2022-08-01T10:09:38;26.0;84.5
45383;DHT22;42455;51.660;5.824;2022-08-01T10:14:47;26.3;83.5
45383;DHT22;42455;51.660;5.824;2022-08-01T10:19:51;26.5;83.0
45383;DHT22;42455;51.660;5.824;2022-08-01T10:25:01;26.5;82.0
45383;DHT22;42455;51.660;5.824;2022-08-01T10:30:04;26.5;81.0
45383;DHT22;42455;51.660;5.824;2022-08-01T10:35:08;26.6;81.0
45383;DHT22;42455;51.660;5.824;2022-08-01T10:40:14;26.7;81.0
45383;DHT22;42455;51.660;5.824;2022-08-01T10:45:20;26.7;80.5
45383;DHT22;42455;51.660;5.824;2022-08-01T10:50:43;26.5;80.0
45383;DHT22;42455;51.660;5.824;2022-08-01T10:55:44;26.2;80.5
45383;DHT22;42455;51.660;5.824;2022-08-01T11:00:38;25.9;80.5
45383;DHT22;42455;51.660;5.824;2022-08-01T11:05:51;25.5;81.0
45383;DHT22;42455;51.660;5.824;2022-08-01T11:10:59;25.2;81.0
45383;DHT22;42455;51.660;5.824;2022-08-01T11:16:28;24.9;81.5
45383;DHT22;42455;51.660;5.824;2022-08-01T11:21:03;24.9;82.5
45383;DHT22;42455;51.660;5.824;2022-08-01T11:26:15;25.0;82.5
45383;DHT22;42455;51.660;5.824;2022-08-01T11:31:28;25.2;82.0
45383;DHT22;42455;51.660;5.824;2022-08-01T11:36:22;25.2;82.0
45383;DHT22;42455;51.660;5.824;2022-08-01T11:41:29;25.1;81.5
45383;DHT22;42455;51.660;5.824;2022-08-01T11:46:46;25.0;82.0
45383;DHT22;42455;51.660;5.824;2022-08-01T11:51:40;24.9;81.5
45383;DHT22;42455;51.660;5.824;2022-08-01T11:56:46;24.9;82.5
45383;DHT22;42455;51.660;5.824;2022-08-01T12:01:53;24.9;82.5
45383;DHT22;42455;51.660;5.824;2022-08-01T12:07:11;25.0;82.5
45383;DHT22;42455;51.660;5.824;2022-08-01T12:12:06;25.1;82.0
45383;DHT22;42455;51.660;5.824;2022-08-01T12:17:11;25.2;82.0
45383;DHT22;42455;51.660;5.824;2022-08-01T12:22:21;25.4;81.0
45383;DHT22;42455;51.660;5.824;2022-08-01T12:27:27;25.5;80.5
45383;DHT22;42455;51.660;5.824;2022-08-01T12:32:30;25.7;80.5
45383;DHT22;42455;51.660;5.824;2022-08-01T12:37:35;25.8;79.5
45383;DHT22;42455;51.660;5.824;2022-08-01T12:42:43;25.9;79.5
45383;DHT22;42455;51.660;5.824;2022-08-01T12:47:48;26.0;79.0
45383;DHT22;42455;51.660;5.824;2022-08-01T12:52:54;26.1;78.5
45383;DHT22;42455;51.660;5.824;2022-08-01T12:58:07;26.1;77.5
45383;DHT22;42455;51.660;5.824;2022-08-01T13:03:10;26.2;77.5
45383;DHT22;42455;51.660;5.824;2022-08-01T13:08:15;26.4;78.0
45383;DHT22;42455;51.660;5.824;2022-08-01T13:13:18;26.6;77.0
45383;DHT22;42455;51.660;5.824;2022-08-01T13:18:28;26.7;76.5
45383;DHT22;42455;51.660;5.824;2022-08-01T13:23:31;26.7;76.0
45383;DHT22;42455;51.660;5.824;2022-08-01T13:28:37;26.7;76.0
45383;DHT22;42455;51.660;5.824;2022-08-01T13:33:47;26.5;75.5
45383;DHT22;42455;51.660;5.824;2022-08-01T13:38:50;26.4;76.0
45383;DHT22;42455;51.660;5.824;2022-08-01T13:43:56;26.4;76.0
45383;DHT22;42455;51.660;5.824;2022-08-01T13:49:02;26.5;76.5
45383;DHT22;42455;51.660;5.824;2022-08-01T13:54:08;26.6;76.0
45383;DHT22;42455;51.660;5.824;2022-08-01T13:59:15;26.8;75.5
45383;DHT22;42455;51.660;5.824;2022-08-01T14:04:21;26.6;75.0
45383;DHT22;42455;51.660;5.824;2022-08-01T14:09:27;26.4;75.5
45383;DHT22;42455;51.660;5.824;2022-08-01T14:14:33;26.3;75.0
45383;DHT22;42455;51.660;5.824;2022-08-01T14:19:38;26.1;75.5
45383;DHT22;42455;51.660;5.824;2022-08-01T14:24:44;26.1;75.5
45383;DHT22;42455;51.660;5.824;2022-08-01T14:29:50;26.0;75.0
45383;DHT22;42455;51.660;5.824;2022-08-01T14:34:56;25.9;75.5
45383;DHT22;42455;51.660;5.824;2022-08-01T14:40:03;26.1;76.0
45383;DHT22;42455;51.660;5.824;2022-08-01T14:45:08;26.3;75.5
45383;DHT22;42455;51.660;5.824;2022-08-01T14:50:15;26.3;75.5
45383;DHT22;42455;51.660;5.824;2022-08-01T14:55:21;26.3;75.5
45383;DHT22;42455;51.660;5.824;2022-08-01T15:00:27;26.5;75.5
45383;DHT22;42455;51.660;5.824;2022-08-01T15:05:33;26.5;74.0
45383;DHT22;42455;51.660;5.824;2022-08-01T15:10:39;26.5;74.0
45383;DHT22;42455;51.660;5.824;2022-08-01T15:15:46;26.7;74.0
45383;DHT22;42455;51.660;5.824;2022-08-01T15:20:52;26.7;72.5
45383;DHT22;42455;51.660;5.824;2022-08-01T15:25:58;26.6;72.5
45383;DHT22;42455;51.660;5.824;2022-08-01T15:31:04;26.6;72.5
45383;DHT22;42455;51.660;5.824;2022-08-01T15:36:11;26.7;72.0
45383;DHT22;42455;51.660;5.824;2022-08-01T15:41:17;0.0;0.0
45383;DHT22;42455;51.660;5.824;2022-08-01T15:46:23;26.7;71.5
45383;DHT22;42455;51.660;5.824;2022-08-01T15:51:29;26.5;71.0
45383;DHT22;42455;51.660;5.824;2022-08-01T15:56:36;26.4;71.0
45383;DHT22;42455;51.660;5.824;2022-08-01T16:01:42;26.2;70.5
45383;DHT22;42455;51.660;5.824;2022-08-01T16:06:48;26.2;71.5
45383;DHT22;42455;51.660;5.824;2022-08-01T16:11:54;26.4;71.5
45383;DHT22;42455;51.660;5.824;2022-08-01T16:16:59;26.7;71.0
45383;DHT22;42455;51.660;5.824;2022-08-01T16:22:05;27.0;70.0
45383;DHT22;42455;51.660;5.824;2022-08-01T16:27:12;27.3;69.5
45383;DHT22;42455;51.660;5.824;2022-08-01T16:32:18;27.4;68.0
45383;DHT22;42455;51.660;5.824;2022-08-01T16:37:24;27.5;67.0
45383;DHT22;42455;51.660;5.824;2022-08-01T16:42:30;27.6;67.0
45383;DHT22;42455;51.660;5.824;2022-08-01T16:47:36;27.8;66.0
45383;DHT22;42455;51.660;5.824;2022-08-01T16:52:43;28.0;65.0
45383;DHT22;42455;51.660;5.824;2022-08-01T16:57:49;28.1;64.0
45383;DHT22;42455;51.660;5.824;2022-08-01T17:02:55;28.2;63.0
45383;DHT22;42455;51.660;5.824;2022-08-01T17:08:02;28.3;62.5
45383;DHT22;42455;51.660;5.824;2022-08-01T17:13:08;0.0;0.0
45383;DHT22;42455;51.660;5.824;2022-08-01T17:18:14;28.3;61.0
45383;DHT22;42455;51.660;5.824;2022-08-01T17:23:20;28.2;60.0
45383;DHT22;42455;51.660;5.824;2022-08-01T17:28:26;28.2;59.5
45383;DHT22;42455;51.660;5.824;2022-08-01T17:33:33;28.0;59.0
45383;DHT22;42455;51.660;5.824;2022-08-01T17:38:39;27.9;59.0
45383;DHT22;42455;51.660;5.824;2022-08-01T17:43:45;27.8;59.0
45383;DHT22;42455;51.660;5.824;2022-08-01T17:48:51;0.0;0.0
45383;DHT22;42455;51.660;5.824;2022-08-01T17:53:58;27.6;59.0
45383;DHT22;42455;51.660;5.824;2022-08-01T18:04:10;0.0;0.0
45383;DHT22;42455;51.660;5.824;2022-08-01T18:09:17;27.2;58.5
45383;DHT22;42455;51.660;5.824;2022-08-01T18:14:23;27.1;58.5
45383;DHT22;42455;51.660;5.824;2022-08-01T18:19:29;26.8;58.5
45383;DHT22;42455;51.660;5.824;2022-08-01T18:24:35;26.5;58.5
45383;DHT22;42455;51.660;5.824;2022-08-01T18:29:42;26.2;58.5
45383;DHT22;42455;51.660;5.824;2022-08-01T18:34:48;25.8;59.0
45383;DHT22;42455;51.660;5.824;2022-08-01T18:39:54;25.5;59.5
45383;DHT22;42455;51.660;5.824;2022-08-01T18:45:00;25.2;60.0
45383;DHT22;42455;51.660;5.824;2022-08-01T18:50:06;24.9;60.5
45383;DHT22;42455;51.660;5.824;2022-08-01T18:55:13;24.6;61.5
45383;DHT22;42455;51.660;5.824;2022-08-01T19:00:19;24.3;62.5
45383;DHT22;42455;51.660;5.824;2022-08-01T19:05:25;24.1;63.0
45383;DHT22;42455;51.660;5.824;2022-08-01T19:10:31;23.8;63.5
45383;DHT22;42455;51.660;5.824;2022-08-01T19:15:37;23.6;64.0
45383;DHT22;42455;51.660;5.824;2022-08-01T19:20:44;23.3;65.0
45383;DHT22;42455;51.660;5.824;2022-08-01T19:25:53;23.0;65.0
45383;DHT22;42455;51.660;5.824;2022-08-01T19:30:57;22.8;66.0
45383;DHT22;42455;51.660;5.824;2022-08-01T19:36:03;22.5;66.0
45383;DHT22;42455;51.660;5.824;2022-08-01T19:41:09;22.3;66.5
45383;DHT22;42455;51.660;5.824;2022-08-01T19:46:15;22.1;66.5
45383;DHT22;42455;51.660;5.824;2022-08-01T19:51:22;21.9;67.0
45383;DHT22;42455;51.660;5.824;2022-08-01T19:56:27;21.6;67.0
45383;DHT22;42455;51.660;5.824;2022-08-01T20:01:33;21.4;67.5
45383;DHT22;42455;51.660;5.824;2022-08-01T20:06:39;21.3;68.0
45383;DHT22;42455;51.660;5.824;2022-08-01T20:16:53;20.9;69.0
45383;DHT22;42455;51.660;5.824;2022-08-01T20:22:02;20.6;69.5
45383;DHT22;42455;51.660;5.824;2022-08-01T20:27:06;20.4;70.0
45383;DHT22;42455;51.660;5.824;2022-08-01T20:32:11;20.2;70.5
45383;DHT22;42455;51.660;5.824;2022-08-01T20:37:17;20.0;70.5
45383;DHT22;42455;51.660;5.824;2022-08-01T20:42:22;19.9;71.0
45383;DHT22;42455;51.660;5.824;2022-08-01T20:47:29;19.7;71.5
45383;DHT22;42455;51.660;5.824;2022-08-01T20:52:34;19.6;72.0
45383;DHT22;42455;51.660;5.824;2022-08-01T20:57:43;19.4;72.0
45383;DHT22;42455;51.660;5.824;2022-08-01T21:03:08;19.3;72.0
45383;DHT22;42455;51.660;5.824;2022-08-01T21:08:02;19.1;72.5
45383;DHT22;42455;51.660;5.824;2022-08-01T21:13:02;19.0;73.0
45383;DHT22;42455;51.660;5.824;2022-08-01T21:18:12;18.8;73.5
45383;DHT22;42455;51.660;5.824;2022-08-01T21:23:16;18.7;73.5
45383;DHT22;42455;51.660;5.824;2022-08-01T21:28:18;18.6;74.0
45383;DHT22;42455;51.660;5.824;2022-08-01T21:33:26;18.5;74.0
45383;DHT22;42455;51.660;5.824;2022-08-01T21:38:31;18.3;74.5
45383;DHT22;42455;51.660;5.824;2022-08-01T21:43:37;18.2;75.0
45383;DHT22;42455;51.660;5.824;2022-08-01T21:48:45;18.1;75.5
45383;DHT22;42455;51.660;5.824;2022-08-01T21:54:04;18.0;76.0
45383;DHT22;42455;51.660;5.824;2022-08-01T21:59:34;17.9;76.0
45383;DHT22;42455;51.660;5.824;2022-08-01T22:04:02;17.9;76.5
45383;DHT22;42455;51.660;5.824;2022-08-01T22:09:08;17.8;76.5
45383;DHT22;42455;51.660;5.824;2022-08-01T22:14:14;17.6;77.0
45383;DHT22;42455;51.660;5.824;2022-08-01T22:19:20;17.5;77.5
45383;DHT22;42455;51.660;5.824;2022-08-01T22:24:28;17.4;78.0
45383;DHT22;42455;51.660;5.824;2022-08-01T22:29:32;17.3;78.5
45383;DHT22;42455;51.660;5.824;2022-08-01T22:34:38;17.2;78.5
45383;DHT22;42455;51.660;5.824;2022-08-01T22:39:45;17.1;79.0
45383;DHT22;42455;51.660;5.824;2022-08-01T22:45:13;17.0;79.5
45383;DHT22;42455;51.660;5.824;2022-08-01T22:50:11;16.8;80.0
45383;DHT22;42455;51.660;5.824;2022-08-01T22:55:10;16.8;80.5
45383;DHT22;42455;51.660;5.824;2022-08-01T23:00:10;16.7;80.5
45383;DHT22;42455;51.660;5.824;2022-08-01T23:05:22;16.6;80.5
45383;DHT22;42455;51.660;5.824;2022-08-01T23:10:24;16.6;81.0
45383;DHT22;42455;51.660;5.824;2022-08-01T23:15:29;16.5;81.0
45383;DHT22;42455;51.660;5.824;2022-08-01T23:20:35;16.4;82.0
45383;DHT22;42455;51.660;5.824;2022-08-01T23:25:42;16.4;82.0
45383;DHT22;42455;51.660;5.824;2022-08-01T23:30:48;16.4;82.5
45383;DHT22;42455;51.660;5.824;2022-08-01T23:40:59;16.3;83.0
45383;DHT22;42455;51.660;5.824;2022-08-01T23:46:06;16.3;83.0
45383;DHT22;42455;51.660;5.824;2022-08-01T23:51:12;16.2;83.5
45383;DHT22;42455;51.660;5.824;2022-08-01T23:56:18;16.2;83.5
